sensor_id;sensor_type;location;lat;lon;timestamp;P1;durP1;ratioP1;P2;durP2;ratioP2
23117;SDS011;11728;50.624;6.014;2023-01-16T00:01:49;4.25;;;1.08;;
23117;SDS011;11728;50.624;6.014;2023-01-16T00:06:49;5.97;;;1.02;;
23117;SDS011;11728;50.624;6.014;2023-01-16T00:11:50;7.32;;;1.30;;
23117;SDS011;11728;50.624;6.014;2023-01-16T00:16:50;2.75;;;0.73;;
23117;SDS011;11728;50.624;6.014;2023-01-16T00:21:51;5.97;;;0.98;;
23117;SDS011;11728;50.624;6.014;2023-01-16T00:26:51;4.15;;;0.95;;
23117;SDS011;11728;50.624;6.014;2023-01-16T00:31:52;4.28;;;1.45;;
23117;SDS011;11728;50.624;6.014;2023-01-16T00:36:52;3.90;;;0.60;;
23117;SDS011;11728;50.624;6.014;2023-01-16T00:41:53;6.78;;;0.90;;
23117;SDS011;11728;50.624;6.014;2023-01-16T00:46:53;4.15;;;0.80;;
23117;SDS011;11728;50.624;6.014;2023-01-16T00:51:53;4.50;;;0.73;;
23117;SDS011;11728;50.624;6.014;2023-01-16T00:56:55;1.92;;;0.55;;
23117;SDS011;11728;50.624;6.014;2023-01-16T01:01:55;3.03;;;0.70;;
23117;SDS011;11728;50.624;6.014;2023-01-16T01:06:56;3.30;;;0.80;;
23117;SDS011;11728;50.624;6.014;2023-01-16T01:11:57;2.95;;;0.77;;
23117;SDS011;11728;50.624;6.014;2023-01-16T01:16:58;3.53;;;0.43;;
23117;SDS011;11728;50.624;6.014;2023-01-16T01:21:59;1.63;;;0.35;;
23117;SDS011;11728;50.624;6.014;2023-01-16T01:26:59;0.90;;;0.40;;
23117;SDS011;11728;50.624;6.014;2023-01-16T01:31:59;2.63;;;0.52;;
23117;SDS011;11728;50.624;6.014;2023-01-16T01:37:05;1.60;;;0.40;;
23117;SDS011;11728;50.624;6.014;2023-01-16T01:42:09;2.92;;;0.60;;
23117;SDS011;11728;50.624;6.014;2023-01-16T01:47:30;5.97;;;0.60;;
23117;SDS011;11728;50.624;6.014;2023-01-16T01:52:34;2.85;;;0.70;;
23117;SDS011;11728;50.624;6.014;2023-01-16T01:57:36;2.78;;;0.98;;
23117;SDS011;11728;50.624;6.014;2023-01-16T02:02:43;1.33;;;0.50;;
23117;SDS011;11728;50.624;6.014;2023-01-16T02:07:47;2.40;;;0.50;;
23117;SDS011;11728;50.624;6.014;2023-01-16T02:12:48;1.15;;;0.43;;
23117;SDS011;11728;50.624;6.014;2023-01-16T02:17:49;4.22;;;0.85;;
23117;SDS011;11728;50.624;6.014;2023-01-16T02:34:34;6.40;;;0.90;;
23117;SDS011;11728;50.624;6.014;2023-01-16T02:39:58;4.95;;;0.70;;
23117;SDS011;11728;50.624;6.014;2023-01-16T02:45:32;6.18;;;0.98;;
23117;SDS011;11728;50.624;6.014;2023-01-16T02:51:03;4.20;;;0.80;;
23117;SDS011;11728;50.624;6.014;2023-01-16T03:01:17;3.72;;;0.85;;
23117;SDS011;11728;50.624;6.014;2023-01-16T03:06:30;8.65;;;1.40;;
23117;SDS011;11728;50.624;6.014;2023-01-16T03:32:43;3.65;;;0.55;;
23117;SDS011;11728;50.624;6.014;2023-01-16T03:37:54;3.63;;;1.00;;
23117;SDS011;11728;50.624;6.014;2023-01-16T03:43:40;6.25;;;0.75;;
23117;SDS011;11728;50.624;6.014;2023-01-16T03:53:38;4.53;;;1.25;;
23117;SDS011;11728;50.624;6.014;2023-01-16T03:58:45;1.75;;;0.65;;
23117;SDS011;11728;50.624;6.014;2023-01-16T04:03:59;3.63;;;0.80;;
23117;SDS011;11728;50.624;6.014;2023-01-16T04:09:06;3.38;;;0.75;;
23117;SDS011;11728;50.624;6.014;2023-01-16T04:14:12;2.70;;;0.50;;
23117;SDS011;11728;50.624;6.014;2023-01-16T04:19:15;2.28;;;0.47;;
23117;SDS011;11728;50.624;6.014;2023-01-16T04:24:19;2.20;;;0.60;;
23117;SDS011;11728;50.624;6.014;2023-01-16T04:29:19;2.17;;;0.50;;
23117;SDS011;11728;50.624;6.014;2023-01-16T04:34:20;6.28;;;0.57;;
23117;SDS011;11728;50.624;6.014;2023-01-16T04:39:21;2.90;;;0.60;;
23117;SDS011;11728;50.624;6.014;2023-01-16T04:44:21;1.10;;;0.47;;
23117;SDS011;11728;50.624;6.014;2023-01-16T04:49:22;2.45;;;0.57;;
23117;SDS011;11728;50.624;6.014;2023-01-16T04:54:22;3.22;;;0.50;;
23117;SDS011;11728;50.624;6.014;2023-01-16T04:59:23;3.83;;;0.52;;
23117;SDS011;11728;50.624;6.014;2023-01-16T05:04:23;1.63;;;0.45;;
23117;SDS011;11728;50.624;6.014;2023-01-16T05:09:24;1.35;;;0.60;;
23117;SDS011;11728;50.624;6.014;2023-01-16T05:14:24;2.20;;;0.65;;
23117;SDS011;11728;50.624;6.014;2023-01-16T05:19:25;4.32;;;1.00;;
23117;SDS011;11728;50.624;6.014;2023-01-16T05:24:25;3.35;;;0.70;;
23117;SDS011;11728;50.624;6.014;2023-01-16T05:29:25;2.70;;;0.82;;
23117;SDS011;11728;50.624;6.014;2023-01-16T05:34:26;3.95;;;1.02;;
23117;SDS011;11728;50.624;6.014;2023-01-16T05:39:26;4.75;;;0.90;;
23117;SDS011;11728;50.624;6.014;2023-01-16T05:44:27;7.25;;;1.00;;
23117;SDS011;11728;50.624;6.014;2023-01-16T05:49:27;5.53;;;0.98;;
23117;SDS011;11728;50.624;6.014;2023-01-16T05:54:28;3.90;;;1.00;;
23117;SDS011;11728;50.624;6.014;2023-01-16T05:59:28;2.40;;;0.70;;
23117;SDS011;11728;50.624;6.014;2023-01-16T06:04:29;3.65;;;0.98;;
23117;SDS011;11728;50.624;6.014;2023-01-16T06:09:29;3.28;;;1.00;;
23117;SDS011;11728;50.624;6.014;2023-01-16T06:14:30;4.82;;;0.70;;
23117;SDS011;11728;50.624;6.014;2023-01-16T06:19:30;3.78;;;0.80;;
23117;SDS011;11728;50.624;6.014;2023-01-16T06:24:31;3.10;;;0.80;;
23117;SDS011;11728;50.624;6.014;2023-01-16T06:29:31;3.83;;;0.90;;
23117;SDS011;11728;50.624;6.014;2023-01-16T06:34:32;4.32;;;0.73;;
23117;SDS011;11728;50.624;6.014;2023-01-16T06:39:32;1.65;;;0.50;;
23117;SDS011;11728;50.624;6.014;2023-01-16T06:44:33;1.45;;;0.50;;
23117;SDS011;11728;50.624;6.014;2023-01-16T06:49:34;1.73;;;0.70;;
23117;SDS011;11728;50.624;6.014;2023-01-16T06:54:34;2.65;;;0.70;;
23117;SDS011;11728;50.624;6.014;2023-01-16T06:59:35;1.65;;;0.50;;
23117;SDS011;11728;50.624;6.014;2023-01-16T07:04:35;1.98;;;0.60;;
23117;SDS011;11728;50.624;6.014;2023-01-16T07:09:35;0.70;;;0.38;;
23117;SDS011;11728;50.624;6.014;2023-01-16T07:14:36;0.50;;;0.40;;
23117;SDS011;11728;50.624;6.014;2023-01-16T07:19:55;1.37;;;0.40;;
23117;SDS011;11728;50.624;6.014;2023-01-16T07:25:21;0.70;;;0.32;;
23117;SDS011;11728;50.624;6.014;2023-01-16T07:30:30;0.75;;;0.30;;
23117;SDS011;11728;50.624;6.014;2023-01-16T07:35:31;1.10;;;0.40;;
23117;SDS011;11728;50.624;6.014;2023-01-16T07:40:31;0.30;;;0.30;;
23117;SDS011;11728;50.624;6.014;2023-01-16T07:45:32;0.30;;;0.20;;
23117;SDS011;11728;50.624;6.014;2023-01-16T07:50:32;0.60;;;0.40;;
23117;SDS011;11728;50.624;6.014;2023-01-16T07:55:33;0.32;;;0.28;;
23117;SDS011;11728;50.624;6.014;2023-01-16T08:00:33;0.60;;;0.30;;
23117;SDS011;11728;50.624;6.014;2023-01-16T08:05:34;0.52;;;0.30;;
23117;SDS011;11728;50.624;6.014;2023-01-16T08:10:34;0.38;;;0.30;;
23117;SDS011;11728;50.624;6.014;2023-01-16T08:15:35;0.38;;;0.20;;
23117;SDS011;11728;50.624;6.014;2023-01-16T08:20:35;0.55;;;0.20;;
23117;SDS011;11728;50.624;6.014;2023-01-16T08:25:36;0.20;;;0.20;;
23117;SDS011;11728;50.624;6.014;2023-01-16T08:30:36;0.30;;;0.13;;
23117;SDS011;11728;50.624;6.014;2023-01-16T08:35:37;0.20;;;0.20;;
23117;SDS011;11728;50.624;6.014;2023-01-16T08:40:37;0.28;;;0.20;;
23117;SDS011;11728;50.624;6.014;2023-01-16T08:45:37;0.38;;;0.20;;
23117;SDS011;11728;50.624;6.014;2023-01-16T08:50:57;0.45;;;0.20;;
23117;SDS011;11728;50.624;6.014;2023-01-16T08:56:15;0.20;;;0.20;;
23117;SDS011;11728;50.624;6.014;2023-01-16T09:01:16;0.30;;;0.20;;
23117;SDS011;11728;50.624;6.014;2023-01-16T09:06:17;0.38;;;0.20;;
23117;SDS011;11728;50.624;6.014;2023-01-16T09:11:18;0.30;;;0.25;;
23117;SDS011;11728;50.624;6.014;2023-01-16T09:16:37;0.35;;;0.20;;
23117;SDS011;11728;50.624;6.014;2023-01-16T09:21:37;0.28;;;0.20;;
23117;SDS011;11728;50.624;6.014;2023-01-16T09:26:38;0.80;;;0.40;;
23117;SDS011;11728;50.624;6.014;2023-01-16T09:31:38;0.28;;;0.20;;
23117;SDS011;11728;50.624;6.014;2023-01-16T09:36:39;0.20;;;0.20;;
23117;SDS011;11728;50.624;6.014;2023-01-16T09:41:43;0.98;;;0.20;;
23117;SDS011;11728;50.624;6.014;2023-01-16T09:47:15;0.73;;;0.32;;
23117;SDS011;11728;50.624;6.014;2023-01-16T09:52:19;0.63;;;0.20;;
23117;SDS011;11728;50.624;6.014;2023-01-16T09:57:43;0.70;;;0.20;;
23117;SDS011;11728;50.624;6.014;2023-01-16T10:03:04;0.40;;;0.30;;
23117;SDS011;11728;50.624;6.014;2023-01-16T10:08:19;0.30;;;0.20;;
23117;SDS011;11728;50.624;6.014;2023-01-16T10:40:24;1.38;;;0.50;;
23117;SDS011;11728;50.624;6.014;2023-01-16T10:45:30;1.05;;;0.32;;
23117;SDS011;11728;50.624;6.014;2023-01-16T10:50:52;0.82;;;0.43;;
23117;SDS011;11728;50.624;6.014;2023-01-16T10:55:53;1.35;;;0.50;;
23117;SDS011;11728;50.624;6.014;2023-01-16T11:00:58;0.57;;;0.30;;
23117;SDS011;11728;50.624;6.014;2023-01-16T11:06:05;1.23;;;0.35;;
23117;SDS011;11728;50.624;6.014;2023-01-16T11:11:07;1.00;;;0.25;;
23117;SDS011;11728;50.624;6.014;2023-01-16T11:16:30;1.10;;;0.30;;
23117;SDS011;11728;50.624;6.014;2023-01-16T11:22:18;0.82;;;0.47;;
23117;SDS011;11728;50.624;6.014;2023-01-16T11:27:22;0.38;;;0.28;;
23117;SDS011;11728;50.624;6.014;2023-01-16T11:32:25;0.70;;;0.30;;
23117;SDS011;11728;50.624;6.014;2023-01-16T11:37:28;0.90;;;0.20;;
23117;SDS011;11728;50.624;6.014;2023-01-16T11:42:29;0.57;;;0.22;;
23117;SDS011;11728;50.624;6.014;2023-01-16T11:47:55;2.10;;;0.52;;
23117;SDS011;11728;50.624;6.014;2023-01-16T11:52:56;1.35;;;0.38;;
23117;SDS011;11728;50.624;6.014;2023-01-16T11:58:18;0.35;;;0.22;;
23117;SDS011;11728;50.624;6.014;2023-01-16T12:08:56;0.70;;;0.40;;
23117;SDS011;11728;50.624;6.014;2023-01-16T12:14:33;1.23;;;0.65;;
23117;SDS011;11728;50.624;6.014;2023-01-16T12:46:34;0.20;;;0.20;;
23117;SDS011;11728;50.624;6.014;2023-01-16T12:51:45;0.10;;;0.10;;
23117;SDS011;11728;50.624;6.014;2023-01-16T12:57:22;0.47;;;0.20;;
23117;SDS011;11728;50.624;6.014;2023-01-16T13:07:35;0.57;;;0.22;;
23117;SDS011;11728;50.624;6.014;2023-01-16T13:12:41;2.55;;;0.98;;
23117;SDS011;11728;50.624;6.014;2023-01-16T13:18:07;0.70;;;0.30;;
23117;SDS011;11728;50.624;6.014;2023-01-16T13:29:23;0.20;;;0.20;;
23117;SDS011;11728;50.624;6.014;2023-01-16T13:34:30;0.47;;;0.30;;
23117;SDS011;11728;50.624;6.014;2023-01-16T13:45:27;0.20;;;0.20;;
23117;SDS011;11728;50.624;6.014;2023-01-16T13:50:56;0.55;;;0.20;;
23117;SDS011;11728;50.624;6.014;2023-01-16T13:56:05;1.27;;;0.65;;
23117;SDS011;11728;50.624;6.014;2023-01-16T14:06:41;1.30;;;0.38;;
23117;SDS011;11728;50.624;6.014;2023-01-16T14:17:01;1.92;;;0.50;;
23117;SDS011;11728;50.624;6.014;2023-01-16T14:22:02;0.93;;;0.43;;
23117;SDS011;11728;50.624;6.014;2023-01-16T14:27:09;0.70;;;0.30;;
23117;SDS011;11728;50.624;6.014;2023-01-16T14:37:33;0.47;;;0.30;;
23117;SDS011;11728;50.624;6.014;2023-01-16T14:53:25;1.33;;;0.43;;
23117;SDS011;11728;50.624;6.014;2023-01-16T14:58:50;2.53;;;0.95;;
23117;SDS011;11728;50.624;6.014;2023-01-16T15:03:58;0.55;;;0.25;;
23117;SDS011;11728;50.624;6.014;2023-01-16T15:09:00;1.20;;;0.68;;
23117;SDS011;11728;50.624;6.014;2023-01-16T15:14:05;1.15;;;0.40;;
23117;SDS011;11728;50.624;6.014;2023-01-16T15:19:28;0.55;;;0.30;;
23117;SDS011;11728;50.624;6.014;2023-01-16T15:24:49;1.33;;;0.97;;
23117;SDS011;11728;50.624;6.014;2023-01-16T15:30:04;3.85;;;2.70;;
23117;SDS011;11728;50.624;6.014;2023-01-16T15:35:15;4.53;;;2.50;;
23117;SDS011;11728;50.624;6.014;2023-01-16T15:40:24;7.70;;;5.67;;
23117;SDS011;11728;50.624;6.014;2023-01-16T15:45:27;2.80;;;1.50;;
23117;SDS011;11728;50.624;6.014;2023-01-16T15:50:52;40.63;;;16.83;;
23117;SDS011;11728;50.624;6.014;2023-01-16T15:56:02;43.77;;;21.60;;
23117;SDS011;11728;50.624;6.014;2023-01-16T16:01:04;2.03;;;1.08;;
23117;SDS011;11728;50.624;6.014;2023-01-16T16:06:06;1.08;;;0.50;;
23117;SDS011;11728;50.624;6.014;2023-01-16T16:11:10;0.85;;;0.50;;
23117;SDS011;11728;50.624;6.014;2023-01-16T16:16:37;0.70;;;0.40;;
23117;SDS011;11728;50.624;6.014;2023-01-16T16:21:56;0.83;;;0.40;;
23117;SDS011;11728;50.624;6.014;2023-01-16T16:27:19;0.70;;;0.30;;
23117;SDS011;11728;50.624;6.014;2023-01-16T16:32:20;1.20;;;0.47;;
23117;SDS011;11728;50.624;6.014;2023-01-16T16:37:20;1.05;;;0.52;;
23117;SDS011;11728;50.624;6.014;2023-01-16T16:47:26;0.75;;;0.50;;
23117;SDS011;11728;50.624;6.014;2023-01-16T16:52:29;1.20;;;0.60;;
23117;SDS011;11728;50.624;6.014;2023-01-16T16:57:44;0.90;;;0.50;;
23117;SDS011;11728;50.624;6.014;2023-01-16T17:02:47;0.80;;;0.55;;
23117;SDS011;11728;50.624;6.014;2023-01-16T17:07:50;1.42;;;0.50;;
23117;SDS011;11728;50.624;6.014;2023-01-16T17:12:51;1.35;;;0.52;;
23117;SDS011;11728;50.624;6.014;2023-01-16T17:17:51;2.50;;;0.68;;
23117;SDS011;11728;50.624;6.014;2023-01-16T17:22:57;1.95;;;1.02;;
23117;SDS011;11728;50.624;6.014;2023-01-16T17:27:57;2.65;;;1.20;;
23117;SDS011;11728;50.624;6.014;2023-01-16T17:33:05;2.38;;;1.38;;
23117;SDS011;11728;50.624;6.014;2023-01-16T17:38:11;2.65;;;1.75;;
23117;SDS011;11728;50.624;6.014;2023-01-16T17:43:14;2.45;;;1.55;;
23117;SDS011;11728;50.624;6.014;2023-01-16T17:48:35;4.05;;;2.00;;
23117;SDS011;11728;50.624;6.014;2023-01-16T17:53:36;4.22;;;2.08;;
23117;SDS011;11728;50.624;6.014;2023-01-16T17:58:38;2.63;;;1.83;;
23117;SDS011;11728;50.624;6.014;2023-01-16T18:04:02;2.92;;;2.10;;
23117;SDS011;11728;50.624;6.014;2023-01-16T18:09:10;3.38;;;2.50;;
23117;SDS011;11728;50.624;6.014;2023-01-16T18:14:13;3.33;;;2.22;;
23117;SDS011;11728;50.624;6.014;2023-01-16T18:19:32;3.53;;;2.30;;
23117;SDS011;11728;50.624;6.014;2023-01-16T18:24:34;2.85;;;2.10;;
23117;SDS011;11728;50.624;6.014;2023-01-16T18:29:36;2.17;;;1.50;;
23117;SDS011;11728;50.624;6.014;2023-01-16T18:34:37;3.55;;;2.58;;
23117;SDS011;11728;50.624;6.014;2023-01-16T18:39:37;3.80;;;2.80;;
23117;SDS011;11728;50.624;6.014;2023-01-16T18:44:56;2.45;;;1.80;;
23117;SDS011;11728;50.624;6.014;2023-01-16T18:50:15;2.60;;;2.10;;
23117;SDS011;11728;50.624;6.014;2023-01-16T18:55:34;3.77;;;2.97;;
23117;SDS011;11728;50.624;6.014;2023-01-16T19:00:53;2.45;;;1.92;;
23117;SDS011;11728;50.624;6.014;2023-01-16T19:06:12;4.03;;;2.72;;
23117;SDS011;11728;50.624;6.014;2023-01-16T19:11:12;3.33;;;2.25;;
23117;SDS011;11728;50.624;6.014;2023-01-16T19:16:13;2.75;;;2.28;;
23117;SDS011;11728;50.624;6.014;2023-01-16T19:21:32;3.50;;;2.50;;
23117;SDS011;11728;50.624;6.014;2023-01-16T19:26:33;3.90;;;2.78;;
23117;SDS011;11728;50.624;6.014;2023-01-16T19:31:33;5.00;;;3.30;;
23117;SDS011;11728;50.624;6.014;2023-01-16T19:36:34;3.58;;;2.63;;
23117;SDS011;11728;50.624;6.014;2023-01-16T19:41:36;4.20;;;2.20;;
23117;SDS011;11728;50.624;6.014;2023-01-16T19:46:56;2.65;;;1.50;;
23117;SDS011;11728;50.624;6.014;2023-01-16T19:51:57;3.20;;;1.80;;
23117;SDS011;11728;50.624;6.014;2023-01-16T19:56:58;2.70;;;1.80;;
23117;SDS011;11728;50.624;6.014;2023-01-16T20:02:02;2.97;;;1.88;;
23117;SDS011;11728;50.624;6.014;2023-01-16T20:07:05;3.25;;;1.92;;
23117;SDS011;11728;50.624;6.014;2023-01-16T20:12:11;2.67;;;1.30;;
23117;SDS011;11728;50.624;6.014;2023-01-16T20:17:31;1.92;;;1.02;;
23117;SDS011;11728;50.624;6.014;2023-01-16T20:22:36;1.60;;;0.65;;
23117;SDS011;11728;50.624;6.014;2023-01-16T20:27:37;1.23;;;0.80;;
23117;SDS011;11728;50.624;6.014;2023-01-16T20:32:38;2.47;;;1.00;;
23117;SDS011;11728;50.624;6.014;2023-01-16T20:37:39;2.75;;;1.33;;
23117;SDS011;11728;50.624;6.014;2023-01-16T20:42:39;2.20;;;1.60;;
23117;SDS011;11728;50.624;6.014;2023-01-16T20:47:58;5.13;;;2.90;;
23117;SDS011;11728;50.624;6.014;2023-01-16T20:52:59;6.63;;;3.10;;
23117;SDS011;11728;50.624;6.014;2023-01-16T20:57:59;9.57;;;3.42;;
23117;SDS011;11728;50.624;6.014;2023-01-16T21:03:00;7.57;;;3.53;;
23117;SDS011;11728;50.624;6.014;2023-01-16T21:08:01;10.93;;;3.88;;
23117;SDS011;11728;50.624;6.014;2023-01-16T21:13:02;9.60;;;3.50;;
23117;SDS011;11728;50.624;6.014;2023-01-16T21:18:21;7.57;;;2.88;;
23117;SDS011;11728;50.624;6.014;2023-01-16T21:23:40;12.02;;;3.85;;
23117;SDS011;11728;50.624;6.014;2023-01-16T21:28:40;8.18;;;4.32;;
23117;SDS011;11728;50.624;6.014;2023-01-16T21:33:41;13.65;;;3.75;;
23117;SDS011;11728;50.624;6.014;2023-01-16T21:38:41;10.45;;;3.30;;
23117;SDS011;11728;50.624;6.014;2023-01-16T21:43:42;6.93;;;3.80;;
23117;SDS011;11728;50.624;6.014;2023-01-16T21:49:01;9.65;;;3.45;;
23117;SDS011;11728;50.624;6.014;2023-01-16T21:54:02;7.78;;;3.20;;
23117;SDS011;11728;50.624;6.014;2023-01-16T21:59:03;6.40;;;3.05;;
23117;SDS011;11728;50.624;6.014;2023-01-16T22:04:03;8.40;;;3.22;;
23117;SDS011;11728;50.624;6.014;2023-01-16T22:09:04;9.85;;;3.50;;
23117;SDS011;11728;50.624;6.014;2023-01-16T22:14:05;5.38;;;2.90;;
23117;SDS011;11728;50.624;6.014;2023-01-16T22:19:24;4.30;;;2.70;;
23117;SDS011;11728;50.624;6.014;2023-01-16T22:24:29;4.20;;;3.05;;
23117;SDS011;11728;50.624;6.014;2023-01-16T22:29:32;6.38;;;3.30;;
23117;SDS011;11728;50.624;6.014;2023-01-16T22:34:32;4.93;;;3.45;;
23117;SDS011;11728;50.624;6.014;2023-01-16T22:39:33;6.75;;;4.25;;
23117;SDS011;11728;50.624;6.014;2023-01-16T22:44:33;6.57;;;3.90;;
23117;SDS011;11728;50.624;6.014;2023-01-16T22:49:52;11.60;;;4.30;;
23117;SDS011;11728;50.624;6.014;2023-01-16T22:54:53;7.55;;;4.07;;
23117;SDS011;11728;50.624;6.014;2023-01-16T22:59:53;6.95;;;3.55;;
23117;SDS011;11728;50.624;6.014;2023-01-16T23:04:54;6.10;;;2.78;;
23117;SDS011;11728;50.624;6.014;2023-01-16T23:09:54;5.63;;;2.47;;
23117;SDS011;11728;50.624;6.014;2023-01-16T23:14:55;5.22;;;2.40;;
23117;SDS011;11728;50.624;6.014;2023-01-16T23:19:55;7.00;;;2.92;;
23117;SDS011;11728;50.624;6.014;2023-01-16T23:24:57;4.15;;;2.42;;
23117;SDS011;11728;50.624;6.014;2023-01-16T23:29:57;5.70;;;2.55;;
23117;SDS011;11728;50.624;6.014;2023-01-16T23:34:58;7.75;;;2.70;;
23117;SDS011;11728;50.624;6.014;2023-01-16T23:39:58;6.03;;;2.70;;
23117;SDS011;11728;50.624;6.014;2023-01-16T23:44:59;5.30;;;2.65;;
23117;SDS011;11728;50.624;6.014;2023-01-16T23:49:59;7.07;;;2.60;;
23117;SDS011;11728;50.624;6.014;2023-01-16T23:55:00;5.47;;;3.03;;
